Mistral — TCCH — position and weather

sailwx.info

Track history (hours):
 
Tides and Currents Weather Stations Pressure Air Temp Water Temp Dewpoint Dewpoint Depression Visibility Wind Speed Wind Dir Waves Ship Positions

Mistral

Last reported at 2016-Feb-07 21:33 UTC. Time now 2016-Feb-07 21:52 UTC.
Position N 55°52' E 012°40'.

Length 130 m; draft 4.6 m.

Type: Cargo ship. MMSI: 271000615.

Date/timePositionNaut miles runAvg speedWind from/ knotsBaromVisibWave heightAir tempDewpointWater temp
2016-Feb-07 21:33N 55°52' E 012°40'9 8.6
2016-Feb-07 20:33N 56°01' E 012°40'11 7.9
2016-Feb-07 19:10N 56°09' E 012°26'610.2
2016-Feb-07 18:33N 56°12' E 012°17'20 8.6
2016-Feb-07 16:12N 56°30' E 011°58'5 8.6
2016-Feb-07 15:33N 56°35' E 011°57'9 8.7
2016-Feb-07 14:33N 56°44' E 011°53'9 8.7
2016-Feb-07 13:33N 56°52' E 011°48'9 8.8
2016-Feb-07 12:33N 57°00' E 011°43'8 7.6
2016-Feb-07 11:33N 57°07' E 011°38'7 7.0
2016-Feb-07 10:33N 57°14' E 011°34'7 7.1
2016-Feb-07 09:33N 57°21' E 011°29'7 7.0
2016-Feb-07 08:33N 57°27' E 011°25'6 6.4
2016-Feb-07 07:33N 57°32' E 011°16'7 6.9
2016-Feb-07 06:33N 57°36' E 011°07'7 6.7
2016-Feb-07 05:33N 57°41' E 010°57'7 7.0
2016-Feb-07 04:31N 57°46' E 010°48'10 9.0
2016-Feb-07 03:27N 57°47' E 010°30'28410.9
2016-Feb-06 01:25N 54°12' E 004°57'14410.9
2016-Feb-05 12:12N 52°05' E 003°01'4113.0
2016-Feb-05 09:04N 51°34' E 002°19'612.2
2016-Feb-05 08:33N 51°30' E 002°12'1212.0
2016-Feb-05 07:33N 51°21' E 001°59'1211.5
2016-Feb-05 06:33N 51°12' E 001°47'1110.7
2016-Feb-05 05:33N 51°03' E 001°38'1010.3
2016-Feb-05 04:33N 50°54' E 001°29'  
2016-Feb-01 23:05N 41°55' W 009°48'5 8.9
2016-Feb-01 22:32N 41°50' W 009°49'10 9.8
2016-Feb-01 21:32N 41°40' W 009°49'10 9.5
2016-Feb-01 20:26N 41°30' W 009°48'9 9.9
2016-Feb-01 19:32N 41°21' W 009°48'10 9.3
2016-Feb-01 18:29N 41°11' W 009°49'9 9.4
2016-Feb-01 17:32N 41°02' W 009°49'10 9.6
2016-Feb-01 16:32N 40°53' W 009°50'10 9.9
2016-Feb-01 15:32N 40°43' W 009°50'9 9.0
2016-Feb-01 14:32N 40°34' W 009°50'10 9.7
2016-Feb-01 13:32N 40°24' W 009°50'9 9.2
2016-Feb-01 12:32N 40°15' W 009°50'10 9.6
2016-Feb-01 11:31N 40°05' W 009°50'1010.0
2016-Feb-01 10:32N 39°55' W 009°50'10 9.5
2016-Feb-01 09:32N 39°46' W 009°51'10 9.5
2016-Feb-01 08:32N 39°36' W 009°51'10 9.1
2016-Feb-01 07:29N 39°27' W 009°51'8 8.9
2016-Feb-01 06:32N 39°18' W 009°51'9 8.7
2016-Feb-01 05:33N 39°10' W 009°51'9 8.8
2016-Feb-01 04:33N 39°01' W 009°51'9 8.8
2016-Feb-01 03:33N 38°52' W 009°51'9 8.7
2016-Feb-01 02:33N 38°43' W 009°51'8 8.4
2016-Feb-01 01:33N 38°35' W 009°49'8 8.4
2016-Feb-01 00:33N 38°27' W 009°47'9 8.5
2016-Jan-31 23:32N 38°18' W 009°45'18 8.5
2016-Jan-31 21:24N 38°01' W 009°39'8 8.6
2016-Jan-31 20:32N 37°54' W 009°36'9 8.8
2016-Jan-31 19:33N 37°45' W 009°34'9 8.7
2016-Jan-31 18:33N 37°37' W 009°32'10 9.7
2016-Jan-31 17:32N 37°27' W 009°30'9 9.2
2016-Jan-31 16:32N 37°18' W 009°28'9 8.8
2016-Jan-31 15:29N 37°09' W 009°25'8 8.7
2016-Jan-31 14:32N 37°01' W 009°22'6 6.1
2016-Jan-31 13:32N 36°55' W 009°21'10 9.6
2016-Jan-31 12:32N 36°46' W 009°18'10 9.7
2016-Jan-31 11:32N 36°40' W 009°08'9 9.0
2016-Jan-31 10:29N 36°33' W 008°59'9 9.0
2016-Jan-31 09:32N 36°25' W 008°55'1010.1
2016-Jan-31 08:32N 36°15' W 008°54'  
Track history (hours):
 
Tides and Currents Weather Stations Pressure Air Temp Water Temp Dewpoint Dewpoint Depression Visibility Wind Speed Wind Dir Waves Ship Positions

Mistral

Last reported at 2016-Feb-07 21:33 UTC. Time now 2016-Feb-07 21:52 UTC.
Position N 55°52' E 012°40'.

Length 130 m; draft 4.6 m.

Type: Cargo ship. MMSI: 271000615.

Date/timePositionNaut miles runAvg speedWind from/ knotsBaromVisibWave heightAir tempDewpointWater temp
2016-Feb-07 21:33N 55°52' E 012°40'9 8.6
2016-Feb-07 20:33N 56°01' E 012°40'11 7.9
2016-Feb-07 19:10N 56°09' E 012°26'610.2
2016-Feb-07 18:33N 56°12' E 012°17'20 8.6
2016-Feb-07 16:12N 56°30' E 011°58'5 8.6
2016-Feb-07 15:33N 56°35' E 011°57'9 8.7
2016-Feb-07 14:33N 56°44' E 011°53'9 8.7
2016-Feb-07 13:33N 56°52' E 011°48'9 8.8
2016-Feb-07 12:33N 57°00' E 011°43'8 7.6
2016-Feb-07 11:33N 57°07' E 011°38'7 7.0
2016-Feb-07 10:33N 57°14' E 011°34'7 7.1
2016-Feb-07 09:33N 57°21' E 011°29'7 7.0
2016-Feb-07 08:33N 57°27' E 011°25'6 6.4
2016-Feb-07 07:33N 57°32' E 011°16'7 6.9
2016-Feb-07 06:33N 57°36' E 011°07'7 6.7
2016-Feb-07 05:33N 57°41' E 010°57'7 7.0
2016-Feb-07 04:31N 57°46' E 010°48'10 9.0
2016-Feb-07 03:27N 57°47' E 010°30'28410.9
2016-Feb-06 01:25N 54°12' E 004°57'14410.9
2016-Feb-05 12:12N 52°05' E 003°01'4113.0
2016-Feb-05 09:04N 51°34' E 002°19'612.2
2016-Feb-05 08:33N 51°30' E 002°12'1212.0
2016-Feb-05 07:33N 51°21' E 001°59'1211.5
2016-Feb-05 06:33N 51°12' E 001°47'1110.7
2016-Feb-05 05:33N 51°03' E 001°38'1010.3
2016-Feb-05 04:33N 50°54' E 001°29'  
2016-Feb-01 23:05N 41°55' W 009°48'5 8.9
2016-Feb-01 22:32N 41°50' W 009°49'10 9.8
2016-Feb-01 21:32N 41°40' W 009°49'10 9.5
2016-Feb-01 20:26N 41°30' W 009°48'9 9.9
2016-Feb-01 19:32N 41°21' W 009°48'10 9.3
2016-Feb-01 18:29N 41°11' W 009°49'9 9.4
2016-Feb-01 17:32N 41°02' W 009°49'10 9.6
2016-Feb-01 16:32N 40°53' W 009°50'10 9.9
2016-Feb-01 15:32N 40°43' W 009°50'9 9.0
2016-Feb-01 14:32N 40°34' W 009°50'10 9.7
2016-Feb-01 13:32N 40°24' W 009°50'9 9.2
2016-Feb-01 12:32N 40°15' W 009°50'10 9.6
2016-Feb-01 11:31N 40°05' W 009°50'1010.0
2016-Feb-01 10:32N 39°55' W 009°50'10 9.5
2016-Feb-01 09:32N 39°46' W 009°51'10 9.5
2016-Feb-01 08:32N 39°36' W 009°51'10 9.1
2016-Feb-01 07:29N 39°27' W 009°51'8 8.9
2016-Feb-01 06:32N 39°18' W 009°51'9 8.7
2016-Feb-01 05:33N 39°10' W 009°51'9 8.8
2016-Feb-01 04:33N 39°01' W 009°51'9 8.8
2016-Feb-01 03:33N 38°52' W 009°51'9 8.7
2016-Feb-01 02:33N 38°43' W 009°51'8 8.4
2016-Feb-01 01:33N 38°35' W 009°49'8 8.4
2016-Feb-01 00:33N 38°27' W 009°47'9 8.5
2016-Jan-31 23:32N 38°18' W 009°45'18 8.5
2016-Jan-31 21:24N 38°01' W 009°39'8 8.6
2016-Jan-31 20:32N 37°54' W 009°36'9 8.8
2016-Jan-31 19:33N 37°45' W 009°34'9 8.7
2016-Jan-31 18:33N 37°37' W 009°32'10 9.7
2016-Jan-31 17:32N 37°27' W 009°30'9 9.2
2016-Jan-31 16:32N 37°18' W 009°28'9 8.8
2016-Jan-31 15:29N 37°09' W 009°25'8 8.7
2016-Jan-31 14:32N 37°01' W 009°22'6 6.1
2016-Jan-31 13:32N 36°55' W 009°21'10 9.6
2016-Jan-31 12:32N 36°46' W 009°18'10 9.7
2016-Jan-31 11:32N 36°40' W 009°08'9 9.0
2016-Jan-31 10:29N 36°33' W 008°59'9 9.0
2016-Jan-31 09:32N 36°25' W 008°55'1010.1
2016-Jan-31 08:32N 36°15' W 008°54'  

Dump ship's entire track history